Seabulk Arctic — WCY7054 — position and weather

sailwx.info

Track history (hours):
 
Tides and Currents Weather Stations Pressure Air Temp Water Temp Dewpoint Dewpoint Depression Visibility Wind Speed Wind Dir Waves Ship Positions

Seabulk Arctic

Owner: LIGHTSHIP TANKERS IV LLC, FORT LAUDERDALE, FL. More information available from US FCC via Universal Licensing System and Coast Guard Vessel Documentation Center.

Last reported at 2017-Dec-11 15:36 UTC. Time now 2017-Dec-12 20:07 UTC.
Position N 29°21' W 093°14'.

Type: Tanker. MMSI: 366826000.

Date/timePositionNaut miles runAvg speedWind from/ knotsBaromVisibWave heightAir tempDewpointWater temp
2017-Dec-11 15:36N 29°21' W 093°14'611.5
2017-Dec-11 15:07N 29°26' W 093°13'110.6
2017-Dec-11 14:58N 29°28' W 093°13'510.2
2017-Dec-11 14:30N 29°32' W 093°15'611.4
2017-Dec-11 14:00N 29°37' W 093°19'510.5
2017-Dec-11 13:30N 29°42' W 093°20'5 9.2
2017-Dec-11 13:00N 29°46' W 093°21'5 9.1
2017-Dec-11 12:30N 29°51' W 093°21'4 7.2
2017-Dec-11 12:00N 29°55' W 093°20'4 8.3
2017-Dec-11 11:30N 29°59' W 093°20'3 6.0
2017-Dec-11 11:00N 30°02' W 093°20'3 6.4
2017-Dec-11 10:30N 30°05' W 093°20'4 7.0
2017-Dec-11 10:00N 30°08' W 093°20'2 3.9
2017-Dec-11 09:30N 30°10' W 093°19'0 0.5
2017-Dec-11 08:58N 30°11' W 093°19'0 0.0
2017-Dec-11 08:28N 30°11' W 093°19'0 0.0
2017-Dec-11 07:58N 30°11' W 093°19'0 0.0
2017-Dec-11 07:28N 30°11' W 093°19'0 0.0
2017-Dec-11 06:58N 30°11' W 093°19'0 0.0
2017-Dec-11 06:28N 30°11' W 093°19'0 0.0
2017-Dec-11 05:58N 30°11' W 093°19'0 0.0
2017-Dec-11 05:28N 30°11' W 093°19'0 0.0
2017-Dec-11 04:58N 30°11' W 093°19'0 0.0
2017-Dec-11 04:28N 30°11' W 093°19'0 0.0
2017-Dec-11 03:58N 30°11' W 093°19'0 0.0
2017-Dec-11 03:28N 30°11' W 093°19'0 0.0
2017-Dec-11 02:58N 30°11' W 093°19'0 0.0
2017-Dec-11 02:28N 30°11' W 093°19'0 0.0
2017-Dec-11 01:58N 30°11' W 093°19'0 0.0
2017-Dec-11 01:28N 30°11' W 093°19'0 0.0
2017-Dec-11 00:58N 30°11' W 093°19'0 0.0
2017-Dec-11 00:28N 30°11' W 093°19'0 0.0
2017-Dec-10 23:58N 30°11' W 093°19'0 0.0
2017-Dec-10 23:28N 30°11' W 093°19'0 0.0
2017-Dec-10 22:58N 30°11' W 093°19'0 0.0
2017-Dec-10 22:28N 30°11' W 093°19'0 0.0
2017-Dec-10 21:52N 30°11' W 093°19'0 0.0
2017-Dec-10 21:28N 30°11' W 093°19'0 0.0
2017-Dec-10 20:58N 30°11' W 093°19'0 0.0
2017-Dec-10 20:28N 30°11' W 093°19'0 0.0
2017-Dec-10 19:58N 30°11' W 093°19'0 0.0
2017-Dec-10 19:28N 30°11' W 093°19'0 0.0
2017-Dec-10 18:58N 30°11' W 093°19'0 0.0
2017-Dec-10 18:28N 30°11' W 093°19'0 0.0
2017-Dec-10 17:58N 30°11' W 093°19'0 0.0
2017-Dec-10 17:28N 30°11' W 093°19'0 0.0
2017-Dec-10 16:58N 30°11' W 093°19'0 0.0
2017-Dec-10 16:28N 30°11' W 093°19'0 0.0
2017-Dec-10 15:58N 30°11' W 093°19'0 0.0
2017-Dec-10 15:28N 30°11' W 093°19'0 0.0
2017-Dec-10 14:58N 30°11' W 093°19'0 0.0
2017-Dec-10 14:28N 30°11' W 093°19'0 0.0
2017-Dec-10 13:58N 30°11' W 093°19'0 0.0
2017-Dec-10 13:28N 30°11' W 093°19'0 0.0
2017-Dec-10 12:58N 30°11' W 093°19'0 0.0
2017-Dec-10 12:28N 30°11' W 093°19'0 0.0
2017-Dec-10 11:58N 30°11' W 093°19'0 0.0
2017-Dec-10 11:28N 30°11' W 093°19'0 0.0
2017-Dec-10 10:58N 30°11' W 093°19'0 0.0
2017-Dec-10 10:28N 30°11' W 093°19'0 0.0
2017-Dec-10 09:55N 30°11' W 093°19'0 0.0
2017-Dec-10 09:28N 30°11' W 093°19'0 0.0
2017-Dec-10 08:58N 30°11' W 093°19'0 0.0
2017-Dec-10 08:28N 30°11' W 093°19'0 0.0
2017-Dec-10 07:55N 30°11' W 093°19'0 0.0
2017-Dec-10 07:28N 30°11' W 093°19'0 0.0
2017-Dec-10 06:58N 30°11' W 093°19'0 0.0
2017-Dec-10 06:28N 30°11' W 093°19'0 0.0
2017-Dec-10 05:58N 30°11' W 093°19'0 0.0
2017-Dec-10 05:28N 30°11' W 093°19'0 0.0
2017-Dec-10 04:58N 30°11' W 093°19'0 0.0
2017-Dec-10 04:28N 30°11' W 093°19'0 0.0
2017-Dec-10 03:55N 30°11' W 093°19'0 0.0
2017-Dec-10 03:28N 30°11' W 093°19'0 0.0
2017-Dec-10 02:58N 30°11' W 093°19'0 0.0
2017-Dec-10 02:28N 30°11' W 093°19'0 0.0
2017-Dec-10 01:58N 30°11' W 093°19'0 0.0
2017-Dec-10 01:28N 30°11' W 093°19'0 0.0
2017-Dec-10 00:58N 30°11' W 093°19'0 0.0
2017-Dec-10 00:28N 30°11' W 093°19'0 0.0
2017-Dec-09 23:58N 30°11' W 093°19'0 0.0
2017-Dec-09 23:28N 30°11' W 093°19'0 0.0
2017-Dec-09 22:58N 30°11' W 093°19'0 0.0
2017-Dec-09 22:28N 30°11' W 093°19'0 0.0
2017-Dec-09 21:58N 30°11' W 093°19'0 0.0
2017-Dec-09 21:28N 30°11' W 093°19'0 0.0
2017-Dec-09 20:58N 30°11' W 093°19'0 0.0
2017-Dec-09 20:28N 30°11' W 093°19'0 0.0
2017-Dec-09 19:58N 30°11' W 093°19'0 0.0
2017-Dec-09 19:28N 30°11' W 093°19'0 0.0
2017-Dec-09 18:58N 30°11' W 093°19'0 0.0
2017-Dec-09 18:28N 30°11' W 093°19'0 0.0
2017-Dec-09 17:58N 30°11' W 093°19'0 0.0
2017-Dec-09 17:28N 30°11' W 093°19'0 0.0
2017-Dec-09 16:58N 30°11' W 093°19'0 0.0
2017-Dec-09 16:28N 30°11' W 093°19'0 0.0
2017-Dec-09 15:58N 30°11' W 093°19'0 0.0
2017-Dec-09 15:28N 30°11' W 093°19'0 0.0
2017-Dec-09 14:58N 30°11' W 093°19'0 0.0
2017-Dec-09 14:28N 30°11' W 093°19'0 0.0
2017-Dec-09 13:58N 30°11' W 093°19'0 0.0
2017-Dec-09 13:28N 30°11' W 093°19'0 0.0
2017-Dec-09 12:55N 30°11' W 093°19'0 0.0
2017-Dec-09 12:28N 30°11' W 093°19'0 0.0
2017-Dec-09 11:58N 30°11' W 093°19'0 0.0
2017-Dec-09 11:28N 30°11' W 093°19'0 0.0
2017-Dec-09 10:58N 30°11' W 093°19'0 0.0
2017-Dec-09 10:28N 30°11' W 093°19'0 0.0
2017-Dec-09 09:58N 30°11' W 093°19'0 0.0
2017-Dec-09 09:28N 30°11' W 093°19'0 0.0
2017-Dec-09 08:58N 30°11' W 093°19'0 0.0
2017-Dec-09 08:28N 30°11' W 093°19'0 0.0
2017-Dec-09 07:58N 30°11' W 093°19'0 0.0
2017-Dec-09 07:28N 30°11' W 093°19'0 0.0
2017-Dec-09 06:58N 30°11' W 093°19'0 0.0
2017-Dec-09 06:28N 30°11' W 093°19'0 0.0
2017-Dec-09 05:58N 30°11' W 093°19'0 0.0
2017-Dec-09 05:25N 30°11' W 093°19'0 0.0
2017-Dec-09 04:58N 30°11' W 093°19'0 0.0
2017-Dec-09 04:28N 30°11' W 093°19'0 0.0
2017-Dec-09 03:58N 30°11' W 093°19'0 0.0
2017-Dec-09 03:28N 30°11' W 093°19'0 0.0
2017-Dec-09 02:58N 30°11' W 093°19'0 0.0
2017-Dec-09 02:28N 30°11' W 093°19'0 0.0
2017-Dec-09 01:58N 30°11' W 093°19'0 0.0
2017-Dec-09 01:28N 30°11' W 093°19'0 0.0
2017-Dec-09 00:58N 30°11' W 093°19'0 0.0
2017-Dec-09 00:28N 30°11' W 093°19'0 0.0
2017-Dec-08 23:58N 30°11' W 093°19'0 0.0
2017-Dec-08 23:31N 30°11' W 093°19'1 1.2
2017-Dec-08 23:00N 30°11' W 093°19'1 2.6
2017-Dec-08 22:30N 30°10' W 093°19'3 5.9
2017-Dec-08 22:00N 30°07' W 093°20'4 7.7
2017-Dec-08 21:30N 30°03' W 093°20'3 6.5
2017-Dec-08 21:01N 29°60' W 093°20'4 8.3
2017-Dec-08 20:30N 29°56' W 093°20'4 7.9
2017-Dec-08 20:00N 29°52' W 093°21'4 8.8
2017-Dec-08 19:30N 29°47' W 093°21'  
2017-Dec-06 12:00N 24°12' W 082°48'184 3.7 100 / 131017.910.8 23.0
2017-Dec-04 10:30N 26°05' W 080°07'0 0.8
2017-Dec-04 10:00N 26°06' W 080°07'4 8.1
2017-Dec-04 09:30N 26°05' W 080°02'2 3.7
2017-Dec-04 09:00N 26°06' W 080°00'1 1.5
2017-Dec-04 08:30N 26°06' W 079°60'1 2.7
2017-Dec-04 08:00N 26°07' W 079°59'1 2.5
2017-Dec-04 07:30N 26°08' W 079°58'2 4.0
2017-Dec-04 07:00N 26°06' W 079°57'1 2.1
2017-Dec-04 06:31N 26°07' W 079°57'1 2.2
2017-Dec-04 06:00N 26°09' W 079°57'1 2.2
2017-Dec-04 05:31N 26°10' W 079°57'1 1.0
2017-Dec-04 05:00N 26°10' W 079°56'4 7.2
2017-Dec-04 04:30N 26°07' W 079°56'1 1.7
2017-Dec-04 04:00N 26°07' W 079°56'1 2.3
2017-Dec-04 03:30N 26°08' W 079°56'1 2.3
2017-Dec-04 03:00N 26°10' W 079°56'2 4.9
2017-Dec-04 02:30N 26°09' W 079°59'1 2.2
2017-Dec-04 02:00N 26°10' W 079°59'1 3.0
2017-Dec-04 01:30N 26°11' W 079°58'1 2.9
2017-Dec-04 01:00N 26°12' W 079°58'2 3.9
2017-Dec-04 00:30N 26°10' W 079°59'4 8.3
2017-Dec-04 00:00N 26°06' W 079°59'714.0
2017-Dec-03 23:30N 25°59' W 079°58'815.8
2017-Dec-03 23:00N 25°51' W 079°57'815.8
2017-Dec-03 22:30N 25°44' W 079°55'815.3
2017-Dec-03 22:00N 25°36' W 079°54'815.4
2017-Dec-03 21:30N 25°29' W 079°56'815.4
2017-Dec-03 21:00N 25°21' W 079°58'12213.5
2017-Dec-03 12:00N 24°12' W 081°48'14512.0 040 / 191017.510.8 22.0
2017-Dec-03 00:00N 25°00' W 084°18'17014.2 060 / 131018.510.8 22.0
2017-Dec-02 12:00N 26°36' W 086°54'   090 / 91019.510.8 21.0
Track history (hours):
 
Tides and Currents Weather Stations Pressure Air Temp Water Temp Dewpoint Dewpoint Depression Visibility Wind Speed Wind Dir Waves Ship Positions

Seabulk Arctic

Owner: LIGHTSHIP TANKERS IV LLC, FORT LAUDERDALE, FL. More information available from US FCC via Universal Licensing System and Coast Guard Vessel Documentation Center.

Last reported at 2017-Dec-11 15:36 UTC. Time now 2017-Dec-12 20:07 UTC.
Position N 29°21' W 093°14'.

Type: Tanker. MMSI: 366826000.

Date/timePositionNaut miles runAvg speedWind from/ knotsBaromVisibWave heightAir tempDewpointWater temp
2017-Dec-11 15:36N 29°21' W 093°14'611.5
2017-Dec-11 15:07N 29°26' W 093°13'110.6
2017-Dec-11 14:58N 29°28' W 093°13'510.2
2017-Dec-11 14:30N 29°32' W 093°15'611.4
2017-Dec-11 14:00N 29°37' W 093°19'510.5
2017-Dec-11 13:30N 29°42' W 093°20'5 9.2
2017-Dec-11 13:00N 29°46' W 093°21'5 9.1
2017-Dec-11 12:30N 29°51' W 093°21'4 7.2
2017-Dec-11 12:00N 29°55' W 093°20'4 8.3
2017-Dec-11 11:30N 29°59' W 093°20'3 6.0
2017-Dec-11 11:00N 30°02' W 093°20'3 6.4
2017-Dec-11 10:30N 30°05' W 093°20'4 7.0
2017-Dec-11 10:00N 30°08' W 093°20'2 3.9
2017-Dec-11 09:30N 30°10' W 093°19'0 0.5
2017-Dec-11 08:58N 30°11' W 093°19'0 0.0
2017-Dec-11 08:28N 30°11' W 093°19'0 0.0
2017-Dec-11 07:58N 30°11' W 093°19'0 0.0
2017-Dec-11 07:28N 30°11' W 093°19'0 0.0
2017-Dec-11 06:58N 30°11' W 093°19'0 0.0
2017-Dec-11 06:28N 30°11' W 093°19'0 0.0
2017-Dec-11 05:58N 30°11' W 093°19'0 0.0
2017-Dec-11 05:28N 30°11' W 093°19'0 0.0
2017-Dec-11 04:58N 30°11' W 093°19'0 0.0
2017-Dec-11 04:28N 30°11' W 093°19'0 0.0
2017-Dec-11 03:58N 30°11' W 093°19'0 0.0
2017-Dec-11 03:28N 30°11' W 093°19'0 0.0
2017-Dec-11 02:58N 30°11' W 093°19'0 0.0
2017-Dec-11 02:28N 30°11' W 093°19'0 0.0
2017-Dec-11 01:58N 30°11' W 093°19'0 0.0
2017-Dec-11 01:28N 30°11' W 093°19'0 0.0
2017-Dec-11 00:58N 30°11' W 093°19'0 0.0
2017-Dec-11 00:28N 30°11' W 093°19'0 0.0
2017-Dec-10 23:58N 30°11' W 093°19'0 0.0
2017-Dec-10 23:28N 30°11' W 093°19'0 0.0
2017-Dec-10 22:58N 30°11' W 093°19'0 0.0
2017-Dec-10 22:28N 30°11' W 093°19'0 0.0
2017-Dec-10 21:52N 30°11' W 093°19'0 0.0
2017-Dec-10 21:28N 30°11' W 093°19'0 0.0
2017-Dec-10 20:58N 30°11' W 093°19'0 0.0
2017-Dec-10 20:28N 30°11' W 093°19'0 0.0
2017-Dec-10 19:58N 30°11' W 093°19'0 0.0
2017-Dec-10 19:28N 30°11' W 093°19'0 0.0
2017-Dec-10 18:58N 30°11' W 093°19'0 0.0
2017-Dec-10 18:28N 30°11' W 093°19'0 0.0
2017-Dec-10 17:58N 30°11' W 093°19'0 0.0
2017-Dec-10 17:28N 30°11' W 093°19'0 0.0
2017-Dec-10 16:58N 30°11' W 093°19'0 0.0
2017-Dec-10 16:28N 30°11' W 093°19'0 0.0
2017-Dec-10 15:58N 30°11' W 093°19'0 0.0
2017-Dec-10 15:28N 30°11' W 093°19'0 0.0
2017-Dec-10 14:58N 30°11' W 093°19'0 0.0
2017-Dec-10 14:28N 30°11' W 093°19'0 0.0
2017-Dec-10 13:58N 30°11' W 093°19'0 0.0
2017-Dec-10 13:28N 30°11' W 093°19'0 0.0
2017-Dec-10 12:58N 30°11' W 093°19'0 0.0
2017-Dec-10 12:28N 30°11' W 093°19'0 0.0
2017-Dec-10 11:58N 30°11' W 093°19'0 0.0
2017-Dec-10 11:28N 30°11' W 093°19'0 0.0
2017-Dec-10 10:58N 30°11' W 093°19'0 0.0
2017-Dec-10 10:28N 30°11' W 093°19'0 0.0
2017-Dec-10 09:55N 30°11' W 093°19'0 0.0
2017-Dec-10 09:28N 30°11' W 093°19'0 0.0
2017-Dec-10 08:58N 30°11' W 093°19'0 0.0
2017-Dec-10 08:28N 30°11' W 093°19'0 0.0
2017-Dec-10 07:55N 30°11' W 093°19'0 0.0
2017-Dec-10 07:28N 30°11' W 093°19'0 0.0
2017-Dec-10 06:58N 30°11' W 093°19'0 0.0
2017-Dec-10 06:28N 30°11' W 093°19'0 0.0
2017-Dec-10 05:58N 30°11' W 093°19'0 0.0
2017-Dec-10 05:28N 30°11' W 093°19'0 0.0
2017-Dec-10 04:58N 30°11' W 093°19'0 0.0
2017-Dec-10 04:28N 30°11' W 093°19'0 0.0
2017-Dec-10 03:55N 30°11' W 093°19'0 0.0
2017-Dec-10 03:28N 30°11' W 093°19'0 0.0
2017-Dec-10 02:58N 30°11' W 093°19'0 0.0
2017-Dec-10 02:28N 30°11' W 093°19'0 0.0
2017-Dec-10 01:58N 30°11' W 093°19'0 0.0
2017-Dec-10 01:28N 30°11' W 093°19'0 0.0
2017-Dec-10 00:58N 30°11' W 093°19'0 0.0
2017-Dec-10 00:28N 30°11' W 093°19'0 0.0
2017-Dec-09 23:58N 30°11' W 093°19'0 0.0
2017-Dec-09 23:28N 30°11' W 093°19'0 0.0
2017-Dec-09 22:58N 30°11' W 093°19'0 0.0
2017-Dec-09 22:28N 30°11' W 093°19'0 0.0
2017-Dec-09 21:58N 30°11' W 093°19'0 0.0
2017-Dec-09 21:28N 30°11' W 093°19'0 0.0
2017-Dec-09 20:58N 30°11' W 093°19'0 0.0
2017-Dec-09 20:28N 30°11' W 093°19'0 0.0
2017-Dec-09 19:58N 30°11' W 093°19'0 0.0
2017-Dec-09 19:28N 30°11' W 093°19'0 0.0
2017-Dec-09 18:58N 30°11' W 093°19'0 0.0
2017-Dec-09 18:28N 30°11' W 093°19'0 0.0
2017-Dec-09 17:58N 30°11' W 093°19'0 0.0
2017-Dec-09 17:28N 30°11' W 093°19'0 0.0
2017-Dec-09 16:58N 30°11' W 093°19'0 0.0
2017-Dec-09 16:28N 30°11' W 093°19'0 0.0
2017-Dec-09 15:58N 30°11' W 093°19'0 0.0
2017-Dec-09 15:28N 30°11' W 093°19'0 0.0
2017-Dec-09 14:58N 30°11' W 093°19'0 0.0
2017-Dec-09 14:28N 30°11' W 093°19'0 0.0
2017-Dec-09 13:58N 30°11' W 093°19'0 0.0
2017-Dec-09 13:28N 30°11' W 093°19'0 0.0
2017-Dec-09 12:55N 30°11' W 093°19'0 0.0
2017-Dec-09 12:28N 30°11' W 093°19'0 0.0
2017-Dec-09 11:58N 30°11' W 093°19'0 0.0
2017-Dec-09 11:28N 30°11' W 093°19'0 0.0
2017-Dec-09 10:58N 30°11' W 093°19'0 0.0
2017-Dec-09 10:28N 30°11' W 093°19'0 0.0
2017-Dec-09 09:58N 30°11' W 093°19'0 0.0
2017-Dec-09 09:28N 30°11' W 093°19'0 0.0
2017-Dec-09 08:58N 30°11' W 093°19'0 0.0
2017-Dec-09 08:28N 30°11' W 093°19'0 0.0
2017-Dec-09 07:58N 30°11' W 093°19'0 0.0
2017-Dec-09 07:28N 30°11' W 093°19'0 0.0
2017-Dec-09 06:58N 30°11' W 093°19'0 0.0
2017-Dec-09 06:28N 30°11' W 093°19'0 0.0
2017-Dec-09 05:58N 30°11' W 093°19'0 0.0
2017-Dec-09 05:25N 30°11' W 093°19'0 0.0
2017-Dec-09 04:58N 30°11' W 093°19'0 0.0
2017-Dec-09 04:28N 30°11' W 093°19'0 0.0
2017-Dec-09 03:58N 30°11' W 093°19'0 0.0
2017-Dec-09 03:28N 30°11' W 093°19'0 0.0
2017-Dec-09 02:58N 30°11' W 093°19'0 0.0
2017-Dec-09 02:28N 30°11' W 093°19'0 0.0
2017-Dec-09 01:58N 30°11' W 093°19'0 0.0
2017-Dec-09 01:28N 30°11' W 093°19'0 0.0
2017-Dec-09 00:58N 30°11' W 093°19'0 0.0
2017-Dec-09 00:28N 30°11' W 093°19'0 0.0
2017-Dec-08 23:58N 30°11' W 093°19'0 0.0
2017-Dec-08 23:31N 30°11' W 093°19'1 1.2
2017-Dec-08 23:00N 30°11' W 093°19'1 2.6
2017-Dec-08 22:30N 30°10' W 093°19'3 5.9
2017-Dec-08 22:00N 30°07' W 093°20'4 7.7
2017-Dec-08 21:30N 30°03' W 093°20'3 6.5
2017-Dec-08 21:01N 29°60' W 093°20'4 8.3
2017-Dec-08 20:30N 29°56' W 093°20'4 7.9
2017-Dec-08 20:00N 29°52' W 093°21'4 8.8
2017-Dec-08 19:30N 29°47' W 093°21'  
2017-Dec-06 12:00N 24°12' W 082°48'184 3.7 100 / 131017.910.8 23.0
2017-Dec-04 10:30N 26°05' W 080°07'0 0.8
2017-Dec-04 10:00N 26°06' W 080°07'4 8.1
2017-Dec-04 09:30N 26°05' W 080°02'2 3.7
2017-Dec-04 09:00N 26°06' W 080°00'1 1.5
2017-Dec-04 08:30N 26°06' W 079°60'1 2.7
2017-Dec-04 08:00N 26°07' W 079°59'1 2.5
2017-Dec-04 07:30N 26°08' W 079°58'2 4.0
2017-Dec-04 07:00N 26°06' W 079°57'1 2.1
2017-Dec-04 06:31N 26°07' W 079°57'1 2.2
2017-Dec-04 06:00N 26°09' W 079°57'1 2.2
2017-Dec-04 05:31N 26°10' W 079°57'1 1.0
2017-Dec-04 05:00N 26°10' W 079°56'4 7.2
2017-Dec-04 04:30N 26°07' W 079°56'1 1.7
2017-Dec-04 04:00N 26°07' W 079°56'1 2.3
2017-Dec-04 03:30N 26°08' W 079°56'1 2.3
2017-Dec-04 03:00N 26°10' W 079°56'2 4.9
2017-Dec-04 02:30N 26°09' W 079°59'1 2.2
2017-Dec-04 02:00N 26°10' W 079°59'1 3.0
2017-Dec-04 01:30N 26°11' W 079°58'1 2.9
2017-Dec-04 01:00N 26°12' W 079°58'2 3.9
2017-Dec-04 00:30N 26°10' W 079°59'4 8.3
2017-Dec-04 00:00N 26°06' W 079°59'714.0
2017-Dec-03 23:30N 25°59' W 079°58'815.8
2017-Dec-03 23:00N 25°51' W 079°57'815.8
2017-Dec-03 22:30N 25°44' W 079°55'815.3
2017-Dec-03 22:00N 25°36' W 079°54'815.4
2017-Dec-03 21:30N 25°29' W 079°56'815.4
2017-Dec-03 21:00N 25°21' W 079°58'12213.5
2017-Dec-03 12:00N 24°12' W 081°48'14512.0 040 / 191017.510.8 22.0
2017-Dec-03 00:00N 25°00' W 084°18'17014.2 060 / 131018.510.8 22.0
2017-Dec-02 12:00N 26°36' W 086°54'   090 / 91019.510.8 21.0

Dump ship's entire track history